Time;durP1;ratioP1;P1;durP2;ratioP2;P2;SDS_P1;SDS_P2;PMS_P1;PMS_P2;Temp;Humidity;BMP_temperature;BMP_pressure;BME280_temperature;BME280_humidity;BME280_pressure;Samples;Min_cycle;Max_cycle;Signal;HPM_P1;HPM_P2
2023/06/02 00:02:18;;;;;;;6.13;3.60;;;13.00;73.70;;;;;;4986077;28;20079;-77
2023/06/02 00:04:44;;;;;;;7.35;3.00;;;12.90;73.20;;;;;;5003774;28;20038;-79
2023/06/02 00:07:11;;;;;;;9.50;3.42;;;13.00;73.50;;;;;;5006366;28;20037;-78
2023/06/02 00:09:38;;;;;;;6.97;3.30;;;12.90;72.50;;;;;;5004551;28;20057;-78
2023/06/02 00:12:04;;;;;;;13.30;3.67;;;12.80;72.70;;;;;;5022055;28;20101;-78
2023/06/02 00:14:30;;;;;;;6.28;3.17;;;12.80;73.10;;;;;;5021853;28;20117;-78
2023/06/02 00:16:57;;;;;;;8.90;3.50;;;12.80;72.90;;;;;;5016032;28;20065;-78
2023/06/02 00:19:23;;;;;;;15.18;4.60;;;12.80;72.70;;;;;;5006138;28;20038;-78
2023/06/02 00:21:51;;;;;;;7.55;3.00;;;12.80;72.70;;;;;;5005049;28;20087;-78
2023/06/02 00:24:16;;;;;;;8.45;3.17;;;12.70;72.90;;;;;;5001771;28;20026;-78
2023/06/02 00:26:42;;;;;;;5.88;3.05;;;12.80;72.40;;;;;;5000538;28;20048;-79
2023/06/02 00:29:07;;;;;;;9.70;3.50;;;12.80;72.60;;;;;;5003391;28;20037;-79
2023/06/02 00:31:34;;;;;;;10.77;4.80;;;12.80;72.10;;;;;;5004935;28;20044;-79
2023/06/02 00:33:59;;;;;;;7.55;4.00;;;12.70;72.60;;;;;;5005935;28;20486;-78
2023/06/02 00:36:25;;;;;;;12.18;5.43;;;12.60;72.60;;;;;;5004979;28;20102;-78
2023/06/02 00:38:50;;;;;;;10.32;4.38;;;12.60;73.50;;;;;;5024011;28;20112;-78
2023/06/02 00:41:16;;;;;;;14.25;4.10;;;12.60;73.50;;;;;;5006789;28;20042;-79
2023/06/02 00:43:42;;;;;;;8.50;4.30;;;12.60;72.60;;;;;;5009566;28;20052;-79
2023/06/02 00:46:07;;;;;;;8.60;3.92;;;12.70;72.30;;;;;;5006955;28;20119;-78
2023/06/02 00:48:33;;;;;;;11.55;4.38;;;12.80;71.50;;;;;;5008205;28;20037;-78
2023/06/02 00:50:58;;;;;;;11.60;3.92;;;12.70;73.30;;;;;;5023570;28;20021;-78
2023/06/02 00:53:24;;;;;;;7.93;3.88;;;12.60;73.20;;;;;;5024105;28;20081;-79
2023/06/02 00:55:51;;;;;;;9.73;3.85;;;12.50;72.90;;;;;;5007987;28;20124;-79
2023/06/02 00:58:17;;;;;;;17.40;4.35;;;12.50;74.00;;;;;;5024828;28;20037;-79
2023/06/02 01:00:43;;;;;;;6.85;3.95;;;12.50;74.00;;;;;;5008841;28;20038;-78
2023/06/02 01:03:08;;;;;;;6.70;3.67;;;12.50;74.30;;;;;;5000369;28;20033;-79
2023/06/02 01:05:36;;;;;;;10.80;3.58;;;12.40;74.30;;;;;;5024779;28;20124;-78
2023/06/02 01:08:02;;;;;;;4.47;3.33;;;12.50;73.10;;;;;;5005310;28;20030;-79
2023/06/02 01:10:28;;;;;;;10.68;4.35;;;12.50;73.70;;;;;;5021425;28;20381;-78
2023/06/02 01:12:55;;;;;;;13.20;8.15;;;12.40;73.30;;;;;;5006823;28;20040;-77
2023/06/02 01:15:20;;;;;;;15.88;8.82;;;12.40;73.50;;;;;;5005018;28;20049;-78
2023/06/02 01:17:46;;;;;;;17.90;9.35;;;12.30;73.50;;;;;;5023993;28;20441;-77
2023/06/02 01:20:12;;;;;;;11.75;6.68;;;12.40;72.80;;;;;;5025348;28;20033;-77
2023/06/02 01:23:04;;;;;;;8.35;6.25;;;12.30;73.20;;;;;;5007968;28;20435;-76
2023/06/02 01:25:29;;;;;;;10.57;5.18;;;12.30;72.30;;;;;;5022061;28;20444;-79
2023/06/02 01:27:58;;;;;;;12.45;4.88;;;12.30;73.00;;;;;;5004689;28;20041;-78
2023/06/02 01:30:25;;;;;;;13.45;4.72;;;12.30;72.60;;;;;;5005709;28;20045;-78
2023/06/02 01:33:05;;;;;;;11.35;4.75;;;12.40;72.30;;;;;;5022478;28;20032;-78
2023/06/02 01:35:32;;;;;;;9.75;4.95;;;12.40;72.00;;;;;;5023353;28;20044;-78
2023/06/02 01:37:59;;;;;;;11.18;4.82;;;12.30;72.20;;;;;;4987130;28;20026;-78
2023/06/02 01:40:25;;;;;;;8.38;4.78;;;12.30;71.30;;;;;;5007588;28;20037;-78
2023/06/02 01:42:51;;;;;;;12.65;4.68;;;12.40;71.00;;;;;;5006842;28;20037;-78
2023/06/02 01:45:17;;;;;;;10.65;5.07;;;12.20;72.00;;;;;;5023339;28;20080;-79
2023/06/02 01:47:43;;;;;;;16.30;4.97;;;12.30;71.90;;;;;;5021969;28;20033;-78
2023/06/02 01:50:08;;;;;;;13.50;3.85;;;12.20;71.20;;;;;;4989326;28;20030;-79
2023/06/02 01:52:34;;;;;;;10.80;4.38;;;12.30;71.30;;;;;;5008201;28;20080;-78
2023/06/02 01:55:00;;;;;;;10.13;4.35;;;12.20;71.50;;;;;;5020317;28;20660;-79
2023/06/02 01:57:27;;;;;;;11.23;3.40;;;12.20;71.80;;;;;;5021722;28;20052;-78
2023/06/02 01:59:53;;;;;;;10.20;3.65;;;12.10;72.20;;;;;;5019932;28;20029;-78
2023/06/02 02:02:18;;;;;;;10.20;3.33;;;12.10;72.30;;;;;;5005988;28;20037;-78
2023/06/02 02:04:44;;;;;;;10.32;3.13;;;12.10;72.30;;;;;;5004954;28;20029;-78
2023/06/02 02:07:11;;;;;;;14.10;3.90;;;11.90;73.30;;;;;;5003925;28;20033;-79
2023/06/02 02:09:37;;;;;;;10.68;3.15;;;11.90;73.30;;;;;;4992428;28;20163;-78
2023/06/02 02:12:03;;;;;;;8.23;3.00;;;11.90;73.70;;;;;;5006939;28;20029;-78
2023/06/02 02:14:29;;;;;;;9.73;3.60;;;11.80;74.60;;;;;;5007689;28;20099;-79
2023/06/02 02:16:54;;;;;;;15.13;4.35;;;11.80;73.20;;;;;;5004637;28;20042;-78
2023/06/02 02:19:22;;;;;;;9.90;3.17;;;11.80;73.30;;;;;;5023743;28;20095;-78
2023/06/02 02:21:48;;;;;;;17.98;3.95;;;11.70;73.50;;;;;;5006902;28;20366;-78
2023/06/02 02:24:13;;;;;;;12.98;3.55;;;11.80;73.30;;;;;;4988902;28;20060;-78
2023/06/02 02:26:39;;;;;;;9.27;3.20;;;11.70;73.40;;;;;;5016034;28;20030;-79
2023/06/02 02:29:05;;;;;;;10.82;3.58;;;11.70;73.40;;;;;;5010649;28;20041;-79
2023/06/02 02:31:30;;;;;;;12.88;4.40;;;11.60;73.10;;;;;;5023780;28;20048;-79
2023/06/02 02:33:56;;;;;;;12.57;3.58;;;11.60;72.70;;;;;;5021315;28;20521;-79
2023/06/02 02:36:21;;;;;;;14.15;3.78;;;11.60;72.60;;;;;;5006942;28;20037;-79
2023/06/02 02:38:47;;;;;;;8.25;3.28;;;11.60;72.40;;;;;;5001607;28;20029;-80
2023/06/02 02:41:13;;;;;;;13.00;3.47;;;11.50;72.90;;;;;;5038115;28;20049;-78
2023/06/02 02:43:39;;;;;;;11.52;3.95;;;11.60;72.50;;;;;;5021241;28;20047;-78
2023/06/02 02:46:04;;;;;;;13.27;4.00;;;11.50;72.70;;;;;;5023752;28;20037;-78
2023/06/02 02:48:30;;;;;;;9.80;3.90;;;11.40;72.90;;;;;;5019897;28;20128;-77
2023/06/02 02:50:55;;;;;;;13.23;3.95;;;11.40;72.90;;;;;;5021851;28;20033;-78
2023/06/02 02:53:21;;;;;;;12.05;4.25;;;11.40;72.90;;;;;;5024023;28;20038;-77
2023/06/02 02:55:51;;;;;;;15.65;4.45;;;11.40;72.90;;;;;;5021117;28;20041;-77
2023/06/02 02:58:18;;;;;;;17.67;5.40;;;11.40;73.10;;;;;;5004644;28;20045;-77
2023/06/02 03:00:45;;;;;;;13.73;4.30;;;11.30;73.30;;;;;;5022750;28;20539;-77
2023/06/02 03:03:11;;;;;;;10.80;3.80;;;11.40;72.60;;;;;;5007305;28;20045;-77
2023/06/02 03:05:37;;;;;;;11.10;3.78;;;11.40;72.10;;;;;;5021493;28;20032;-77
2023/06/02 03:08:04;;;;;;;11.13;3.58;;;11.30;72.80;;;;;;4991036;28;20037;-76
2023/06/02 03:10:30;;;;;;;10.52;4.75;;;11.30;72.70;;;;;;5005758;28;20044;-76
2023/06/02 03:12:55;;;;;;;14.70;4.07;;;11.40;72.60;;;;;;5023030;28;20038;-79
2023/06/02 03:15:21;;;;;;;11.95;3.60;;;11.40;73.10;;;;;;5003699;28;20045;-78
2023/06/02 03:17:50;;;;;;;12.15;3.50;;;11.30;74.10;;;;;;5005586;28;20218;-78
2023/06/02 03:20:16;;;;;;;13.25;3.45;;;11.40;72.30;;;;;;5007807;28;20076;-78
2023/06/02 03:22:43;;;;;;;13.27;4.18;;;11.40;72.60;;;;;;5020027;28;20048;-77
2023/06/02 03:25:08;;;;;;;12.88;3.67;;;11.30;72.90;;;;;;5022457;28;20040;-77
2023/06/02 03:27:34;;;;;;;11.63;3.90;;;11.30;73.20;;;;;;5005626;28;20029;-77
2023/06/02 03:30:02;;;;;;;13.68;3.40;;;11.30;73.20;;;;;;5022057;28;20561;-78
2023/06/02 03:32:27;;;;;;;7.22;3.13;;;11.30;73.00;;;;;;5021932;28;20814;-78
2023/06/02 03:34:53;;;;;;;15.27;4.30;;;11.20;73.20;;;;;;5000668;28;20064;-79
2023/06/02 03:37:19;;;;;;;15.15;4.07;;;11.20;73.20;;;;;;4996265;28;20581;-77
2023/06/02 03:39:44;;;;;;;16.10;4.05;;;11.10;73.00;;;;;;5022090;28;20511;-77
2023/06/02 03:42:10;;;;;;;10.90;3.78;;;11.10;73.60;;;;;;5003480;28;20136;-78
2023/06/02 03:44:35;;;;;;;21.33;4.15;;;11.10;74.10;;;;;;4999108;28;20513;-78
2023/06/02 03:47:01;;;;;;;11.43;4.30;;;11.10;73.50;;;;;;4998059;28;20033;-77
2023/06/02 03:49:29;;;;;;;14.32;4.97;;;11.20;73.40;;;;;;5020406;28;20478;-77
2023/06/02 03:51:55;;;;;;;15.73;4.75;;;11.30;73.10;;;;;;5020594;28;20040;-77
2023/06/02 03:54:20;;;;;;;14.85;5.63;;;11.20;73.50;;;;;;5006289;28;20033;-77
2023/06/02 03:56:46;;;;;;;17.88;7.07;;;11.20;73.80;;;;;;5013554;28;20064;-77
2023/06/02 03:59:11;;;;;;;18.58;6.95;;;11.10;73.60;;;;;;5007128;28;20549;-76
2023/06/02 04:01:39;;;;;;;17.98;6.97;;;11.10;73.70;;;;;;5021377;28;20041;-76
2023/06/02 04:04:05;;;;;;;18.65;6.63;;;11.30;74.00;;;;;;4991642;28;20088;-77
2023/06/02 04:06:30;;;;;;;15.23;6.93;;;11.20;74.10;;;;;;5018652;28;20034;-77
2023/06/02 04:08:56;;;;;;;15.25;6.88;;;11.20;73.50;;;;;;5005875;28;20041;-77
2023/06/02 04:11:22;;;;;;;19.50;7.75;;;11.20;73.50;;;;;;5021325;28;20394;-76
2023/06/02 04:13:49;;;;;;;14.23;8.18;;;11.20;73.80;;;;;;5016915;28;20048;-77
2023/06/02 04:16:14;;;;;;;14.30;7.55;;;11.10;73.90;;;;;;5002251;28;20659;-78
2023/06/02 04:18:40;;;;;;;16.58;7.72;;;11.20;74.00;;;;;;5018901;28;20116;-78
2023/06/02 04:21:06;;;;;;;13.20;6.43;;;11.20;74.00;;;;;;5005518;28;20092;-78
2023/06/02 04:23:31;;;;;;;19.73;6.25;;;11.20;74.20;;;;;;5004462;28;20637;-78
2023/06/02 04:25:57;;;;;;;10.27;5.45;;;11.20;74.20;;;;;;5017438;28;20088;-78
2023/06/02 04:28:22;;;;;;;15.75;5.22;;;11.10;73.90;;;;;;5020822;28;20447;-78
2023/06/02 04:30:51;;;;;;;20.42;4.90;;;11.20;75.10;;;;;;5003165;28;20493;-78
2023/06/02 04:33:18;;;;;;;12.25;5.00;;;11.30;74.60;;;;;;5023926;28;20041;-78
2023/06/02 04:35:44;;;;;;;18.88;4.35;;;11.30;74.60;;;;;;5003722;28;20037;-78
2023/06/02 04:38:09;;;;;;;14.30;4.30;;;11.40;74.40;;;;;;5004241;28;20033;-78
2023/06/02 04:40:37;;;;;;;18.20;4.68;;;11.30;74.50;;;;;;5018590;28;20147;-78
2023/06/02 04:43:03;;;;;;;12.23;4.70;;;11.30;74.60;;;;;;5020920;28;20907;-78
2023/06/02 04:45:28;;;;;;;18.10;5.05;;;11.40;75.00;;;;;;5001130;28;20030;-78
2023/06/02 04:47:57;;;;;;;15.27;4.10;;;11.40;74.20;;;;;;5019134;28;20030;-78
2023/06/02 04:50:23;;;;;;;19.15;5.15;;;11.30;74.20;;;;;;4986960;28;20034;-77
2023/06/02 04:52:48;;;;;;;17.17;5.50;;;11.40;74.80;;;;;;5020929;28;20048;-77
2023/06/02 04:55:14;;;;;;;7.93;3.92;;;11.40;74.70;;;;;;5006392;28;20125;-77
2023/06/02 04:57:40;;;;;;;11.65;5.15;;;11.50;74.30;;;;;;4999617;28;20057;-77
2023/06/02 05:00:07;;;;;;;16.60;6.18;;;11.50;73.90;;;;;;4994908;28;20069;-76
2023/06/02 05:02:32;;;;;;;14.55;6.45;;;11.60;73.60;;;;;;5004146;28;20050;-77
2023/06/02 05:04:58;;;;;;;22.13;6.78;;;11.60;73.90;;;;;;4997677;28;20072;-76
2023/06/02 05:07:24;;;;;;;14.38;6.80;;;11.60;74.20;;;;;;5019691;28;20034;-76
2023/06/02 05:09:49;;;;;;;16.42;6.35;;;11.60;73.20;;;;;;5005194;28;20429;-76
2023/06/02 05:12:17;;;;;;;10.93;5.55;;;11.70;74.10;;;;;;5004530;28;20048;-76
2023/06/02 05:14:43;;;;;;;14.98;6.40;;;11.70;73.50;;;;;;4998947;28;20034;-78
2023/06/02 05:17:09;;;;;;;11.30;4.82;;;11.70;74.00;;;;;;5003602;28;21044;-77
2023/06/02 05:19:35;;;;;;;15.32;4.88;;;11.60;74.10;;;;;;4999179;28;20556;-77
2023/06/02 05:22:02;;;;;;;19.63;5.25;;;11.70;73.70;;;;;;5023321;28;20405;-77
2023/06/02 05:24:28;;;;;;;15.68;4.82;;;11.60;73.90;;;;;;5005597;28;20133;-76
2023/06/02 05:26:54;;;;;;;12.88;4.40;;;11.70;73.90;;;;;;5004660;28;20497;-76
2023/06/02 05:29:19;;;;;;;14.45;3.88;;;11.80;73.80;;;;;;5020017;28;20059;-77
2023/06/02 05:31:45;;;;;;;12.88;4.05;;;11.90;73.60;;;;;;5022379;28;20056;-77
2023/06/02 05:34:11;;;;;;;20.55;4.85;;;11.90;73.80;;;;;;5023820;28;20041;-77
2023/06/02 05:36:37;;;;;;;11.57;3.80;;;11.90;73.30;;;;;;5024087;28;20400;-77
2023/06/02 05:39:02;;;;;;;17.35;4.28;;;12.00;73.70;;;;;;5023283;28;20497;-77
2023/06/02 05:41:28;;;;;;;13.10;4.40;;;12.10;73.60;;;;;;5003190;28;21082;-77
2023/06/02 05:43:55;;;;;;;12.63;3.58;;;12.00;74.40;;;;;;5006592;28;20397;-76
2023/06/02 05:46:20;;;;;;;12.05;4.00;;;12.10;74.10;;;;;;5021599;28;20559;-76
2023/06/02 05:48:46;;;;;;;13.50;4.03;;;12.20;74.40;;;;;;5024622;28;20033;-77
2023/06/02 05:51:12;;;;;;;18.95;4.97;;;12.20;74.40;;;;;;5020528;28;20033;-77
2023/06/02 05:53:37;;;;;;;15.85;5.20;;;12.20;74.20;;;;;;4998785;28;20120;-76
2023/06/02 05:56:03;;;;;;;15.23;3.72;;;12.20;74.40;;;;;;5019428;28;20224;-77
2023/06/02 05:58:29;;;;;;;11.45;4.55;;;12.30;74.40;;;;;;5022539;28;20104;-79
2023/06/02 06:00:55;;;;;;;13.50;4.85;;;12.30;74.00;;;;;;5008026;28;20025;-77
2023/06/02 06:03:20;;;;;;;12.55;3.83;;;12.30;74.20;;;;;;5003577;28;20109;-77
2023/06/02 06:05:46;;;;;;;12.77;4.60;;;12.40;74.20;;;;;;5021030;28;20715;-77
2023/06/02 06:08:12;;;;;;;12.60;3.90;;;12.60;73.80;;;;;;5022076;28;20037;-77
2023/06/02 06:10:37;;;;;;;12.82;4.03;;;12.70;73.40;;;;;;5023721;28;20401;-77
2023/06/02 06:13:03;;;;;;;15.30;4.57;;;12.80;73.20;;;;;;5020893;28;20819;-77
2023/06/02 06:15:28;;;;;;;10.65;4.00;;;12.80;73.40;;;;;;4985881;28;20041;-77
2023/06/02 06:17:54;;;;;;;14.07;4.47;;;12.90;73.00;;;;;;5004122;28;20021;-77
2023/06/02 06:20:20;;;;;;;22.38;4.65;;;13.00;72.90;;;;;;5022096;28;20394;-77
2023/06/02 06:22:45;;;;;;;16.13;3.90;;;13.10;72.80;;;;;;5024328;28;20026;-76
2023/06/02 06:25:11;;;;;;;11.80;3.85;;;13.20;72.60;;;;;;5022035;28;20033;-77
2023/06/02 06:27:37;;;;;;;18.20;6.22;;;13.30;72.50;;;;;;5003488;28;20049;-77
2023/06/02 06:30:04;;;;;;;12.15;4.63;;;13.40;72.60;;;;;;4997754;28;20501;-76
2023/06/02 06:32:30;;;;;;;11.68;4.80;;;13.40;72.00;;;;;;4998899;28;20120;-76
2023/06/02 06:34:56;;;;;;;13.70;4.75;;;13.50;72.20;;;;;;5019898;28;20034;-77
2023/06/02 06:37:21;;;;;;;9.35;4.13;;;13.50;72.00;;;;;;4987166;28;20041;-78
2023/06/02 06:39:47;;;;;;;13.35;5.38;;;13.60;71.80;;;;;;4990369;28;20091;-77
2023/06/02 06:42:12;;;;;;;16.45;5.38;;;13.60;71.60;;;;;;5005035;28;20030;-76
2023/06/02 06:44:38;;;;;;;15.27;4.70;;;13.80;71.70;;;;;;4988135;28;20059;-75
2023/06/02 06:47:04;;;;;;;12.70;5.13;;;13.90;71.30;;;;;;4987613;28;20037;-78
2023/06/02 06:49:30;;;;;;;12.77;4.82;;;13.90;71.40;;;;;;5025082;28;20030;-78
2023/06/02 06:51:55;;;;;;;15.25;4.90;;;14.00;71.20;;;;;;5019506;28;20790;-78
2023/06/02 06:54:21;;;;;;;14.85;5.40;;;14.10;71.00;;;;;;5023546;28;20037;-78
2023/06/02 06:56:46;;;;;;;17.42;5.07;;;14.20;70.40;;;;;;5021832;28;20401;-78
2023/06/02 06:59:12;;;;;;;10.10;5.10;;;14.30;70.70;;;;;;5019435;28;20034;-78
2023/06/02 07:01:38;;;;;;;17.88;5.10;;;14.40;70.20;;;;;;5021379;28;20669;-78
2023/06/02 07:04:04;;;;;;;12.30;4.35;;;14.50;69.90;;;;;;5019931;28;20033;-78
2023/06/02 07:06:30;;;;;;;14.52;5.00;;;14.60;70.10;;;;;;5006143;28;20066;-78
2023/06/02 07:08:55;;;;;;;18.40;4.22;;;14.70;69.50;;;;;;5005055;28;20041;-80
2023/06/02 07:11:21;;;;;;;13.05;4.95;;;14.70;69.60;;;;;;5022540;28;20148;-79
2023/06/02 07:13:46;;;;;;;10.48;4.03;;;14.80;69.70;;;;;;5007020;28;20030;-79
2023/06/02 07:16:12;;;;;;;17.95;5.70;;;14.90;69.20;;;;;;4987606;28;20465;-80
2023/06/02 07:18:38;;;;;;;13.90;5.10;;;15.00;69.60;;;;;;5021470;28;20067;-79
2023/06/02 07:21:03;;;;;;;12.18;5.05;;;15.00;69.50;;;;;;5020332;28;20393;-79
2023/06/02 07:23:29;;;;;;;10.20;4.30;;;15.20;69.20;;;;;;5020125;28;20124;-80
2023/06/02 07:25:54;;;;;;;12.32;4.60;;;15.20;69.20;;;;;;5001593;28;20029;-79
2023/06/02 07:28:20;;;;;;;14.15;5.25;;;15.40;68.90;;;;;;5022659;28;20054;-78
2023/06/02 07:30:47;;;;;;;15.05;4.30;;;15.50;68.30;;;;;;5022753;28;20032;-78
2023/06/02 07:33:14;;;;;;;22.30;5.47;;;15.50;68.70;;;;;;5017348;28;20095;-77
2023/06/02 07:35:40;;;;;;;9.95;4.07;;;15.60;68.40;;;;;;5016784;28;20052;-78
2023/06/02 07:38:05;;;;;;;9.98;3.90;;;15.80;67.90;;;;;;5003621;28;20042;-78
2023/06/02 07:40:31;;;;;;;13.90;5.57;;;15.90;67.50;;;;;;5004827;28;20067;-78
2023/06/02 07:42:57;;;;;;;19.75;5.22;;;15.90;68.40;;;;;;5019227;28;20076;-78
2023/06/02 07:45:22;;;;;;;15.57;5.45;;;16.10;67.10;;;;;;5003458;28;20505;-78
2023/06/02 07:47:48;;;;;;;13.77;6.47;;;16.20;67.10;;;;;;5004618;28;20092;-78
2023/06/02 07:50:13;;;;;;;16.60;5.38;;;16.30;66.90;;;;;;4998496;28;20033;-78
2023/06/02 07:52:39;;;;;;;17.52;5.15;;;16.40;66.30;;;;;;5002876;28;20030;-77
2023/06/02 07:55:05;;;;;;;12.82;5.22;;;16.50;66.60;;;;;;5021160;28;20033;-77
2023/06/02 07:57:30;;;;;;;16.58;5.63;;;16.50;65.80;;;;;;5004869;28;20076;-77
2023/06/02 07:59:56;;;;;;;15.45;4.75;;;16.70;65.70;;;;;;5004707;28;20060;-78
2023/06/02 08:02:22;;;;;;;13.60;5.30;;;16.80;65.80;;;;;;5017596;28;20052;-78
2023/06/02 08:04:47;;;;;;;17.08;5.32;;;16.70;64.90;;;;;;5004784;28;20032;-77
2023/06/02 08:07:13;;;;;;;17.58;5.32;;;16.90;65.30;;;;;;5015283;28;20408;-78
2023/06/02 08:09:38;;;;;;;9.32;4.65;;;16.80;65.50;;;;;;5019566;28;20045;-78
2023/06/02 08:12:04;;;;;;;17.58;4.63;;;17.00;64.80;;;;;;5018684;28;20780;-78
2023/06/02 08:14:30;;;;;;;12.23;4.95;;;17.10;64.10;;;;;;5022197;28;20559;-79
2023/06/02 08:16:55;;;;;;;13.82;4.95;;;17.20;64.40;;;;;;5019552;28;20033;-78
2023/06/02 08:19:24;;;;;;;13.00;4.55;;;17.20;63.50;;;;;;5003562;28;20563;-78
2023/06/02 08:21:50;;;;;;;12.35;4.40;;;17.30;64.20;;;;;;5018568;28;20030;-78
2023/06/02 08:24:16;;;;;;;9.80;4.57;;;17.40;64.40;;;;;;5004169;28;20026;-78
2023/06/02 08:26:41;;;;;;;12.10;5.10;;;17.60;63.40;;;;;;5004080;28;20778;-78
2023/06/02 08:29:10;;;;;;;11.27;4.03;;;17.70;63.50;;;;;;5004265;28;20051;-78
2023/06/02 08:31:36;;;;;;;9.10;4.30;;;17.80;63.50;;;;;;5019878;28;20037;-78
2023/06/02 08:34:04;;;;;;;11.13;4.60;;;17.90;63.80;;;;;;4986983;28;20076;-77
2023/06/02 08:36:30;;;;;;;10.15;4.65;;;18.00;63.30;;;;;;4986828;28;20215;-78
2023/06/02 08:38:56;;;;;;;16.15;5.40;;;18.30;62.80;;;;;;5018232;28;20083;-78
2023/06/02 08:41:21;;;;;;;9.77;4.30;;;18.40;62.40;;;;;;5006230;28;20037;-78
2023/06/02 08:43:47;;;;;;;10.70;4.45;;;18.70;61.80;;;;;;5004459;28;20057;-77
2023/06/02 08:46:14;;;;;;;15.52;5.03;;;18.80;59.90;;;;;;5019476;28;20473;-77
2023/06/02 08:48:41;;;;;;;15.13;4.55;;;18.80;60.70;;;;;;5001175;28;20623;-78
2023/06/02 08:51:08;;;;;;;9.48;3.90;;;19.00;61.00;;;;;;4997391;28;20080;-78
2023/06/02 08:53:34;;;;;;;9.60;4.75;;;19.20;60.50;;;;;;5017697;28;20041;-79
2023/06/02 08:55:59;;;;;;;10.10;4.22;;;19.30;60.20;;;;;;5022518;28;20037;-78
2023/06/02 08:58:28;;;;;;;10.77;4.50;;;19.60;60.00;;;;;;5022889;28;20044;-77
2023/06/02 09:00:59;;;;;;;17.00;5.22;;;19.80;60.20;;;;;;4990801;28;20092;-78
2023/06/02 09:03:27;;;;;;;7.07;3.38;;;20.10;59.20;;;;;;5002942;28;20375;-78
2023/06/02 09:05:53;;;;;;;7.43;3.85;;;20.10;59.50;;;;;;5017156;28;20542;-78
2023/06/02 09:08:19;;;;;;;13.07;3.50;;;20.20;58.40;;;;;;4991465;28;20037;-77
2023/06/02 09:10:47;;;;;;;12.40;3.90;;;20.30;59.20;;;;;;5005542;28;20148;-78
2023/06/02 09:13:32;;;;;;;14.40;3.05;;;20.60;58.30;;;;;;5023130;28;20520;-78
2023/06/02 09:15:58;;;;;;;10.68;3.05;;;20.80;59.30;;;;;;5007070;28;20034;-78
2023/06/02 09:18:24;;;;;;;9.73;3.10;;;21.10;59.50;;;;;;4989419;28;20038;-78
2023/06/02 09:20:50;;;;;;;8.10;2.75;;;21.50;58.20;;;;;;5007760;28;20037;-77
2023/06/02 09:23:16;;;;;;;10.35;3.53;;;21.60;57.70;;;;;;5022891;28;20397;-77
2023/06/02 09:25:43;;;;;;;9.93;3.00;;;21.90;56.90;;;;;;5018349;28;20026;-78
2023/06/02 09:28:09;;;;;;;9.55;3.15;;;22.00;56.90;;;;;;5005353;28;20124;-78
2023/06/02 09:30:35;;;;;;;15.90;3.55;;;22.20;57.30;;;;;;5007066;28;20033;-77
2023/06/02 09:33:05;;;;;;;11.35;3.15;;;22.50;56.60;;;;;;5019968;28;20040;-78
2023/06/02 09:35:40;;;;;;;7.20;2.33;;;22.90;55.20;;;;;;5020110;28;20473;-77
2023/06/02 09:38:07;;;;;;;11.77;3.55;;;22.90;57.10;;;;;;5024499;28;20338;-78
2023/06/02 09:40:34;;;;;;;8.80;2.90;;;23.30;54.80;;;;;;5007611;28;20448;-78
2023/06/02 09:43:03;;;;;;;8.68;3.10;;;23.60;54.50;;;;;;5019973;28;20030;-77
2023/06/02 09:45:28;;;;;;;12.73;3.40;;;23.70;54.90;;;;;;5016250;28;20043;-77
2023/06/02 09:47:54;;;;;;;12.52;3.45;;;23.90;54.20;;;;;;5019374;28;20042;-77
2023/06/02 09:50:36;;;;;;;9.95;3.35;;;24.00;53.10;;;;;;4998961;28;20501;-77
2023/06/02 09:53:06;;;;;;;13.10;3.95;;;23.90;54.20;;;;;;5016008;28;20083;-77
2023/06/02 09:55:33;;;;;;;11.10;4.32;;;24.00;53.00;;;;;;5020508;28;20053;-77
2023/06/02 09:57:59;;;;;;;12.57;3.50;;;24.30;52.90;;;;;;5004055;28;20037;-79
2023/06/02 10:00:25;;;;;;;11.88;3.78;;;24.20;53.10;;;;;;5007461;28;20030;-76
2023/06/02 10:02:51;;;;;;;8.50;3.83;;;24.20;54.10;;;;;;5023583;28;20401;-79
2023/06/02 10:05:17;;;;;;;9.23;3.90;;;24.20;53.70;;;;;;5021898;28;20037;-76
2023/06/02 10:08:04;;;;;;;7.78;2.65;;;24.30;53.20;;;;;;5005851;28;20838;-77
2023/06/02 10:11:02;;;;;;;9.30;3.45;;;24.30;54.80;;;;;;5025337;28;20112;-78
2023/06/02 10:13:56;;;;;;;8.90;3.72;;;24.60;54.30;;;;;;5020257;28;20037;-77
2023/06/02 10:16:25;;;;;;;12.98;3.47;;;24.90;54.00;;;;;;5005403;28;20507;-78
2023/06/02 10:19:09;;;;;;;13.45;3.70;;;25.30;52.90;;;;;;5020340;28;20034;-78
2023/06/02 10:21:44;;;;;;;13.57;3.92;;;25.50;52.30;;;;;;5023717;28;20036;-79
2023/06/02 10:24:27;;;;;;;10.63;4.07;;;25.70;52.80;;;;;;5026229;28;20102;-79
2023/06/02 10:27:29;;;;;;;18.33;3.92;;;25.90;52.70;;;;;;5022819;28;20047;-79
2023/06/02 10:29:55;;;;;;;11.02;3.63;;;26.00;51.90;;;;;;5014652;28;20110;-78
2023/06/02 10:32:33;;;;;;;9.50;4.10;;;26.00;52.80;;;;;;5024507;28;20025;-79
2023/06/02 10:34:58;;;;;;;8.52;3.97;;;26.30;52.50;;;;;;5004714;28;20449;-79
2023/06/02 10:37:24;;;;;;;9.32;3.75;;;26.40;52.40;;;;;;5001425;28;20037;-79
2023/06/02 10:39:54;;;;;;;14.00;4.80;;;26.80;52.00;;;;;;5023108;28;20056;-78
2023/06/02 10:42:23;;;;;;;11.68;4.18;;;26.90;53.00;;;;;;4991146;28;20026;-79
2023/06/02 10:44:51;;;;;;;14.57;4.15;;;26.90;53.50;;;;;;5020031;28;20038;-80
2023/06/02 10:47:17;;;;;;;17.23;4.95;;;27.70;49.00;;;;;;4985988;28;20033;-79
2023/06/02 10:49:58;;;;;;;13.27;4.63;;;27.60;48.70;;;;;;5021191;28;20867;-80
2023/06/02 10:52:27;;;;;;;14.27;4.75;;;27.30;48.80;;;;;;5001865;28;20449;-81
2023/06/02 10:55:28;;;;;;;10.70;5.07;;;27.30;49.90;;;;;;5005060;28;20092;-80
2023/06/02 10:58:03;;;;;;;14.15;4.82;;;27.40;50.20;;;;;;4969493;28;20034;-80
2023/06/02 11:00:32;;;;;;;8.63;3.50;;;27.50;50.50;;;;;;5006014;28;20026;-79
2023/06/02 11:02:58;;;;;;;11.30;4.72;;;27.70;50.30;;;;;;5021661;28;20033;-80
2023/06/02 11:05:25;;;;;;;13.90;4.85;;;27.70;51.30;;;;;;5000509;28;20053;-80
2023/06/02 11:08:15;;;;;;;20.85;4.88;;;28.00;49.70;;;;;;5002763;28;20084;-80
2023/06/02 11:10:41;;;;;;;15.20;4.97;;;28.00;48.30;;;;;;5021571;28;20029;-79
2023/06/02 11:13:07;;;;;;;10.23;5.10;;;27.80;48.20;;;;;;5019286;28;20022;-80
2023/06/02 11:15:33;;;;;;;12.60;5.05;;;27.70;48.20;;;;;;4310991;28;10000113;-80
2023/06/02 11:18:01;;;;;;;14.02;5.30;;;27.80;49.80;;;;;;5018657;28;20851;-80
2023/06/02 11:20:34;;;;;;;12.25;5.03;;;27.80;48.70;;;;;;4997290;28;20025;-79
2023/06/02 11:23:03;;;;;;;9.00;3.80;;;27.70;48.80;;;;;;5005241;28;20379;-79
2023/06/02 11:25:29;;;;;;;13.15;4.43;;;27.70;49.30;;;;;;5016759;28;20397;-79
2023/06/02 11:27:55;;;;;;;8.38;4.10;;;27.60;50.50;;;;;;5016969;28;20025;-79
2023/06/02 11:30:20;;;;;;;9.25;4.53;;;27.70;49.20;;;;;;5001296;28;20505;-80
2023/06/02 11:32:49;;;;;;;10.60;4.20;;;27.80;49.80;;;;;;5018082;28;20030;-79
2023/06/02 11:35:18;;;;;;;13.52;4.70;;;27.90;49.20;;;;;;5011288;28;20146;-80
2023/06/02 11:37:46;;;;;;;12.43;5.72;;;28.00;48.80;;;;;;4996708;28;21058;-79
2023/06/02 11:40:15;;;;;;;10.05;4.72;;;27.80;48.70;;;;;;4983892;28;20381;-79
2023/06/02 11:42:43;;;;;;;10.45;5.05;;;27.70;49.10;;;;;;5000729;28;20059;-80
2023/06/02 11:45:20;;;;;;;9.30;4.28;;;27.90;48.30;;;;;;5002485;28;20066;-79
2023/06/02 11:47:49;;;;;;;16.02;5.45;;;27.80;48.80;;;;;;5004915;28;20036;-80
2023/06/02 11:50:16;;;;;;;14.60;4.97;;;28.00;48.50;;;;;;4989583;28;20579;-80
2023/06/02 11:52:42;;;;;;;15.68;5.57;;;28.00;48.10;;;;;;4997857;28;20103;-80
2023/06/02 11:55:08;;;;;;;9.57;4.10;;;28.20;49.00;;;;;;4982759;28;20084;-80
2023/06/02 11:57:34;;;;;;;7.85;4.30;;;28.40;49.30;;;;;;5017099;28;20029;-80
2023/06/02 12:00:15;;;;;;;11.10;4.13;;;28.50;48.40;;;;;;5011153;28;20029;-80
2023/06/02 12:03:03;;;;;;;10.32;4.25;;;28.30;48.00;;;;;;5002345;28;20555;-80
2023/06/02 12:05:35;;;;;;;11.77;4.85;;;28.20;48.40;;;;;;5004687;28;20034;-80
2023/06/02 12:08:11;;;;;;;13.70;4.88;;;28.10;48.50;;;;;;4977526;28;20033;-80
2023/06/02 12:10:37;;;;;;;14.80;4.72;;;28.00;48.60;;;;;;5018716;28;20108;-80
2023/06/02 12:13:03;;;;;;;14.07;5.15;;;28.10;48.70;;;;;;4982972;28;20033;-81
2023/06/02 12:15:33;;;;;;;11.68;5.20;;;28.20;48.90;;;;;;4988070;28;20038;-80
2023/06/02 12:18:04;;;;;;;14.10;6.13;;;27.90;48.30;;;;;;5004496;28;20104;-80
2023/06/02 12:20:40;;;;;;;10.10;5.35;;;28.20;48.30;;;;;;5001657;28;20018;-80
2023/06/02 12:23:09;;;;;;;13.60;5.72;;;28.10;48.90;;;;;;4984743;28;20026;-80
2023/06/02 12:25:35;;;;;;;11.38;5.65;;;28.30;48.70;;;;;;5018552;28;20448;-79
2023/06/02 12:28:05;;;;;;;13.60;5.05;;;28.60;47.40;;;;;;5019507;28;20056;-80
2023/06/02 12:30:31;;;;;;;12.20;5.38;;;28.40;47.50;;;;;;5024285;28;20501;-80
2023/06/02 12:33:04;;;;;;;13.38;5.22;;;28.30;48.30;;;;;;5008669;28;20057;-80
2023/06/02 12:35:30;;;;;;;12.18;4.95;;;28.40;48.20;;;;;;5010538;28;20087;-79
2023/06/02 12:37:56;;;;;;;13.55;4.68;;;28.50;47.90;;;;;;5025520;28;20473;-81
2023/06/02 12:40:22;;;;;;;11.30;4.20;;;28.20;48.10;;;;;;4996658;28;20124;-80